createdAt,value
2018-11-28T00:00:41.003Z,29.48
2018-11-28T00:03:10.282Z,35.53
2018-11-28T00:05:39.543Z,30.47
2018-11-28T00:13:28.476Z,36.07
2018-11-28T00:15:58.839Z,32.00
2018-11-28T00:18:28.592Z,36.70
2018-11-28T00:20:57.917Z,39.58
2018-11-28T00:23:27.215Z,34.03
2018-11-28T00:25:58.822Z,31.33
2018-11-28T00:28:25.745Z,35.50
2018-11-28T00:30:55.098Z,31.27
2018-11-28T00:33:24.518Z,34.40
2018-11-28T00:35:53.760Z,34.80
2018-11-28T00:38:23.026Z,33.67
2018-11-28T00:40:52.281Z,30.67
2018-11-28T00:43:21.519Z,28.03
2018-11-28T00:45:50.737Z,33.53
2018-11-28T00:48:19.979Z,27.70
2018-11-28T00:50:49.286Z,32.23
2018-11-28T00:53:19.418Z,31.33
2018-11-28T00:55:48.621Z,32.03
2018-11-28T00:58:18.007Z,31.23
2018-11-28T01:00:47.595Z,33.02
2018-11-28T01:03:17.385Z,34.40
2018-11-28T01:05:46.601Z,32.80
2018-11-28T01:08:16.344Z,30.93
2018-11-28T01:10:45.622Z,30.33
2018-11-28T01:13:15.319Z,32.27
2018-11-28T01:15:44.728Z,29.83
2018-11-28T01:18:14.637Z,38.43
2018-11-28T01:20:43.858Z,39.30
2018-11-28T01:23:14.081Z,29.15
2018-11-28T01:25:43.268Z,30.60
2018-11-28T01:28:12.624Z,31.62
2018-11-28T01:30:41.857Z,30.50
2018-11-28T01:33:11.107Z,34.37
2018-11-28T01:35:40.318Z,32.73
2018-11-28T01:38:09.553Z,28.83
2018-11-28T01:40:38.796Z,34.97
2018-11-28T01:43:08.057Z,30.80
2018-11-28T01:45:37.367Z,30.30
2018-11-28T01:48:06.670Z,36.23
2018-11-28T01:50:36.858Z,32.80
2018-11-28T01:53:06.136Z,39.93
2018-11-28T01:55:35.358Z,35.60
2018-11-28T01:58:04.631Z,33.27
2018-11-28T02:00:33.900Z,33.25
2018-11-28T02:03:03.523Z,31.00
2018-11-28T02:05:32.751Z,33.40
2018-11-28T02:08:02.037Z,30.60
2018-11-28T02:10:31.282Z,33.10
2018-11-28T02:13:00.523Z,33.57
2018-11-28T02:15:29.754Z,35.77
2018-11-28T02:17:58.993Z,38.20
2018-11-28T02:20:29.114Z,37.25
2018-11-28T02:22:58.379Z,39.70
2018-11-28T02:25:27.557Z,40.23
2018-11-28T02:27:56.765Z,45.33
2018-11-28T02:30:26.233Z,36.15
2018-11-28T02:32:55.502Z,34.03
2018-11-28T02:35:24.749Z,35.33
2018-11-28T02:37:54.026Z,37.90
2018-11-28T02:40:23.281Z,32.23
2018-11-28T02:42:52.532Z,33.40
2018-11-28T02:45:22.509Z,34.77
2018-11-28T02:47:52.482Z,36.23
2018-11-28T02:50:21.872Z,33.60
2018-11-28T02:52:51.170Z,34.00
2018-11-28T02:55:20.403Z,35.50
2018-11-28T02:57:50.286Z,38.93
2018-11-28T03:00:26.384Z,39.67
2018-11-28T03:02:55.656Z,35.73
2018-11-28T03:05:24.877Z,34.73
2018-11-28T03:07:54.101Z,33.43
2018-11-28T03:10:23.622Z,38.03
2018-11-28T03:12:52.880Z,36.93
2018-11-28T03:15:30.507Z,38.90
2018-11-28T03:17:59.737Z,32.77
2018-11-28T03:20:28.963Z,38.47
2018-11-28T03:22:58.216Z,40.17
2018-11-28T03:25:27.426Z,34.87
2018-11-28T03:27:56.688Z,38.65
2018-11-28T03:30:25.956Z,32.83
2018-11-28T03:32:55.277Z,37.00
2018-11-28T03:35:24.552Z,33.40
2018-11-28T03:37:53.767Z,40.13
2018-11-28T03:40:22.983Z,39.57
2018-11-28T03:42:52.281Z,34.50
2018-11-28T03:45:21.487Z,42.83
2018-11-28T03:47:50.713Z,36.60
2018-11-28T03:50:19.970Z,37.80
2018-11-28T03:52:49.249Z,35.60
2018-11-28T03:55:18.792Z,36.07
2018-11-28T03:57:48.372Z,41.80
2018-11-28T04:00:20.304Z,37.50
2018-11-28T04:02:50.021Z,37.40
2018-11-28T04:05:19.914Z,34.30
2018-11-28T04:07:49.139Z,35.53
2018-11-28T04:10:19.168Z,41.73
2018-11-28T04:12:48.398Z,34.73
2018-11-28T04:15:19.899Z,38.30
2018-11-28T04:17:49.278Z,37.58
2018-11-28T04:20:20.448Z,40.47
2018-11-28T04:22:49.770Z,35.33
2018-11-28T04:25:22.718Z,36.20
2018-11-28T04:27:52.383Z,35.40
2018-11-28T04:30:24.298Z,36.63
2018-11-28T04:32:54.507Z,38.87
2018-11-28T04:35:24.753Z,38.88
2018-11-28T04:37:54.016Z,36.70
2018-11-28T04:40:23.260Z,38.63
2018-11-28T04:42:52.773Z,45.75
2018-11-28T04:45:24.690Z,39.90
2018-11-28T04:47:54.898Z,38.03
2018-11-28T04:50:24.209Z,45.90
2018-11-28T04:52:53.406Z,39.35
2018-11-28T04:55:22.724Z,54.70
2018-11-28T04:57:52.027Z,34.67
2018-11-28T05:00:27.972Z,41.70
2018-11-28T05:02:58.017Z,38.55
2018-11-28T05:05:27.267Z,37.33
2018-11-28T05:07:56.501Z,39.42
2018-11-28T05:10:27.887Z,46.73
2018-11-28T05:12:57.744Z,33.43
2018-11-28T05:15:28.081Z,32.80
2018-11-28T05:17:57.846Z,44.75
2018-11-28T05:20:35.595Z,36.40
2018-11-28T05:23:05.853Z,36.83
2018-11-28T05:25:35.665Z,36.13
2018-11-28T05:28:05.134Z,38.63
2018-11-28T05:30:35.601Z,37.07
2018-11-28T05:33:04.044Z,33.10
2018-11-28T05:35:40.569Z,41.47
2018-11-28T05:38:14.235Z,38.80
2018-11-28T05:40:44.141Z,41.03
2018-11-28T05:43:13.973Z,37.70
2018-11-28T05:45:43.306Z,33.90
2018-11-28T05:48:12.963Z,41.97
2018-11-28T05:50:42.417Z,41.13
2018-11-28T05:53:12.075Z,36.90
2018-11-28T05:55:41.344Z,55.50
2018-11-28T05:58:10.538Z,39.47
2018-11-28T06:00:40.578Z,37.50
2018-11-28T06:03:10.777Z,36.60
2018-11-28T06:05:42.011Z,36.47
2018-11-28T06:08:11.285Z,37.53
2018-11-28T06:10:40.513Z,32.80
2018-11-28T06:13:09.733Z,41.90
2018-11-28T06:15:38.998Z,37.77
2018-11-28T06:18:09.185Z,38.92
2018-11-28T06:20:38.430Z,38.17
2018-11-28T06:23:07.952Z,36.47
2018-11-28T06:25:37.237Z,40.80
2018-11-28T06:28:06.656Z,35.60
2018-11-28T06:30:36.140Z,40.20
2018-11-28T06:33:05.510Z,46.37
2018-11-28T06:35:34.833Z,44.70
2018-11-28T06:38:04.145Z,36.73
2018-11-28T06:40:33.380Z,30.03
2018-11-28T06:43:02.658Z,34.63
2018-11-28T06:45:31.974Z,44.27
2018-11-28T06:48:01.176Z,36.83
2018-11-28T06:50:30.389Z,40.03
2018-11-28T06:52:59.770Z,35.58
2018-11-28T06:55:28.983Z,35.83
2018-11-28T06:57:58.317Z,42.53
2018-11-28T07:00:27.586Z,35.92
2018-11-28T07:02:57.069Z,40.90
2018-11-28T07:05:26.285Z,34.07
2018-11-28T07:07:55.504Z,42.40
2018-11-28T07:10:24.736Z,54.48
2018-11-28T07:12:54.004Z,42.30
2018-11-28T07:15:24.299Z,44.57
2018-11-28T07:17:53.633Z,39.20
2018-11-28T07:20:22.949Z,35.40
2018-11-28T07:22:52.190Z,44.83
2018-11-28T07:25:21.486Z,40.73
2018-11-28T07:27:50.777Z,44.83
2018-11-28T07:30:22.767Z,40.88
2018-11-28T07:32:54.521Z,39.30
2018-11-28T07:35:23.902Z,39.20
2018-11-28T07:37:53.111Z,39.63
2018-11-28T07:40:23.522Z,34.63
2018-11-28T07:43:00.918Z,38.95
2018-11-28T07:45:30.195Z,40.35
2018-11-28T07:47:59.408Z,36.83
2018-11-28T07:50:28.710Z,45.33
2018-11-28T07:52:57.913Z,39.63
2018-11-28T07:55:27.176Z,44.93
2018-11-28T07:57:56.445Z,40.63
2018-11-28T08:00:25.747Z,40.60
2018-11-28T08:02:55.576Z,48.53
2018-11-28T08:05:25.004Z,41.10
2018-11-28T08:07:54.232Z,35.60
2018-11-28T08:10:26.963Z,35.20
2018-11-28T08:12:57.162Z,44.90
2018-11-28T08:15:35.360Z,49.38
2018-11-28T08:18:04.646Z,42.13
2018-11-28T08:20:34.213Z,47.07
2018-11-28T08:23:03.475Z,52.03
2018-11-28T08:25:32.871Z,51.80
2018-11-28T08:28:02.805Z,44.18
2018-11-28T08:30:32.189Z,39.60
2018-11-28T08:33:01.502Z,42.63
2018-11-28T08:35:36.882Z,38.80
2018-11-28T08:38:09.738Z,43.17
2018-11-28T08:40:41.117Z,46.40
2018-11-28T08:43:12.383Z,38.57
2018-11-28T08:45:42.118Z,50.20
2018-11-28T08:48:15.947Z,47.00
2018-11-28T08:50:45.587Z,48.07
2018-11-28T08:53:15.081Z,49.37
2018-11-28T08:55:44.322Z,46.20
2018-11-28T08:58:13.573Z,42.10
2018-11-28T09:00:42.884Z,42.83
2018-11-28T09:03:12.192Z,39.23
2018-11-28T09:05:41.560Z,40.63
2018-11-28T09:08:10.879Z,47.07
2018-11-28T09:10:40.098Z,42.62
2018-11-28T09:13:09.680Z,48.63
2018-11-28T09:15:38.888Z,44.43
2018-11-28T09:18:08.481Z,41.27
2018-11-28T09:20:37.706Z,45.40
2018-11-28T09:23:07.465Z,39.00
2018-11-28T09:25:36.751Z,39.10
2018-11-28T09:28:06.550Z,53.03
2018-11-28T09:30:35.990Z,47.83
2018-11-28T09:33:09.011Z,40.70
2018-11-28T09:35:40.501Z,52.43
2018-11-28T09:38:10.129Z,45.70
2018-11-28T09:40:39.368Z,48.33
2018-11-28T09:43:09.093Z,44.47
2018-11-28T09:45:38.301Z,54.73
2018-11-28T09:48:07.920Z,40.65
2018-11-28T09:50:37.223Z,38.20
2018-11-28T09:53:06.750Z,50.83
2018-11-28T09:55:35.981Z,42.83
2018-11-28T09:58:05.421Z,36.87
2018-11-28T10:00:34.738Z,41.00
2018-11-28T10:03:04.067Z,38.10
2018-11-28T10:05:34.287Z,35.10
2018-11-28T10:08:04.963Z,35.80
2018-11-28T10:10:34.207Z,49.10
2018-11-28T10:13:03.795Z,38.40
2018-11-28T10:15:35.723Z,37.20
2018-11-28T10:18:02.329Z,33.60
2018-11-28T10:20:32.764Z,37.83
2018-11-28T10:23:02.037Z,34.47
2018-11-28T10:25:31.297Z,35.40
2018-11-28T10:28:06.306Z,39.90
2018-11-28T10:30:37.621Z,37.93
2018-11-28T10:33:09.449Z,35.63
2018-11-28T10:35:39.396Z,38.53
2018-11-28T10:38:09.185Z,31.10
2018-11-28T10:40:38.632Z,36.20
2018-11-28T10:43:09.458Z,34.90
2018-11-28T10:45:38.895Z,32.77
2018-11-28T10:48:10.383Z,38.30
2018-11-28T10:50:39.726Z,33.97
2018-11-28T10:53:09.219Z,40.92
2018-11-28T10:55:38.529Z,36.17
2018-11-28T10:58:08.668Z,36.30
2018-11-28T11:00:44.504Z,32.90
2018-11-28T11:03:19.960Z,37.83
2018-11-28T11:05:55.357Z,41.23
2018-11-28T11:08:31.901Z,34.03
2018-11-28T11:11:08.418Z,32.53
2018-11-28T11:13:42.382Z,34.00
2018-11-28T11:16:11.693Z,39.13
2018-11-28T11:18:41.084Z,36.57
2018-11-28T11:21:10.850Z,34.08
2018-11-28T11:23:40.167Z,34.50
2018-11-28T11:26:13.005Z,31.62
2018-11-28T11:28:42.336Z,32.07
2018-11-28T11:31:11.890Z,30.87
2018-11-28T11:33:41.422Z,32.90
2018-11-28T11:36:10.789Z,34.67
2018-11-28T11:38:40.064Z,35.07
2018-11-28T11:41:12.475Z,40.30
2018-11-28T11:43:41.731Z,35.67
2018-11-28T11:46:11.019Z,28.03
2018-11-28T11:48:40.322Z,31.33
2018-11-28T11:51:10.166Z,38.28
2018-11-28T11:53:39.427Z,35.17
2018-11-28T11:56:09.039Z,32.85
2018-11-28T11:58:38.283Z,29.07
2018-11-28T12:01:07.912Z,28.13
2018-11-28T12:03:37.171Z,33.57
2018-11-28T12:06:06.448Z,32.33
2018-11-28T12:08:35.713Z,28.17
2018-11-28T12:11:05.090Z,29.70
2018-11-28T12:13:34.389Z,29.73
2018-11-28T12:16:03.988Z,32.37
2018-11-28T12:18:33.111Z,31.87
2018-11-28T12:21:05.386Z,28.63
2018-11-28T12:23:34.799Z,33.00
2018-11-28T12:26:04.084Z,29.87
2018-11-28T12:28:33.395Z,28.03
2018-11-28T12:31:02.618Z,28.03
2018-11-28T12:33:31.888Z,30.10
2018-11-28T12:36:01.249Z,25.03
2018-11-28T12:38:30.546Z,27.90
2018-11-28T12:40:59.889Z,24.77
2018-11-28T12:43:29.715Z,27.20
2018-11-28T12:45:58.481Z,26.47
2018-11-28T12:48:27.781Z,26.80
2018-11-28T12:50:57.086Z,33.43
2018-11-28T12:53:26.341Z,23.37
2018-11-28T12:55:55.644Z,26.77
2018-11-28T12:58:24.864Z,26.03
2018-11-28T13:00:54.180Z,32.70
2018-11-28T13:03:23.442Z,24.30
2018-11-28T13:05:52.689Z,27.30
2018-11-28T13:08:22.010Z,26.07
2018-11-28T13:10:51.284Z,32.93
2018-11-28T13:13:20.446Z,37.80
2018-11-28T13:15:49.678Z,25.90
2018-11-28T13:18:18.878Z,31.27
2018-11-28T13:20:48.068Z,30.03
2018-11-28T13:23:17.294Z,30.57
2018-11-28T13:25:46.530Z,28.20
2018-11-28T13:28:15.789Z,31.83
2018-11-28T13:30:45.037Z,35.27
2018-11-28T13:33:14.238Z,38.30
2018-11-28T13:35:43.530Z,33.03
2018-11-28T13:38:13.379Z,22.37
2018-11-28T13:40:43.367Z,46.33
2018-11-28T13:43:12.663Z,25.40
2018-11-28T13:45:44.989Z,27.93
2018-11-28T13:48:14.758Z,30.13
2018-11-28T13:50:44.044Z,26.83
2018-11-28T13:53:14.910Z,27.53
2018-11-28T13:58:28.702Z,26.77
2018-11-28T14:00:58.034Z,24.80
2018-11-28T14:03:27.328Z,25.73
2018-11-28T14:05:56.635Z,33.40
2018-11-28T14:08:25.843Z,26.70
2018-11-28T14:10:55.163Z,26.63
2018-11-28T14:13:24.419Z,31.60
2018-11-28T14:15:53.694Z,23.73
2018-11-28T14:18:23.169Z,25.70
2018-11-28T14:20:52.506Z,32.33
2018-11-28T14:23:21.793Z,27.50
2018-11-28T14:25:51.160Z,25.23
2018-11-28T14:28:20.474Z,24.10
2018-11-28T14:30:50.024Z,26.73
2018-11-28T14:33:19.338Z,25.37
2018-11-28T14:35:48.572Z,25.40
2018-11-28T14:38:17.862Z,34.40
2018-11-28T14:40:47.091Z,26.37
2018-11-28T14:43:16.401Z,27.70
2018-11-28T14:45:45.620Z,29.07
2018-11-28T14:48:14.898Z,27.20
2018-11-28T14:50:48.393Z,28.10
2018-11-28T14:53:17.949Z,33.30
2018-11-28T14:55:47.241Z,31.57
2018-11-28T14:58:16.528Z,27.30
2018-11-28T15:00:46.184Z,25.83
2018-11-28T15:03:19.717Z,26.30
2018-11-28T15:05:56.762Z,29.83
2018-11-28T15:08:26.254Z,26.53
2018-11-28T15:11:01.565Z,28.13
2018-11-28T15:13:30.913Z,30.03
2018-11-28T15:16:00.966Z,24.63
2018-11-28T15:18:30.315Z,24.53
2018-11-28T15:20:59.866Z,30.63
2018-11-28T15:23:29.187Z,25.70
2018-11-28T15:25:58.586Z,27.87
2018-11-28T15:28:27.853Z,30.62
2018-11-28T15:30:57.222Z,28.77
2018-11-28T15:33:26.591Z,26.57
2018-11-28T15:35:55.937Z,27.00
2018-11-28T15:38:26.281Z,24.60
2018-11-28T15:40:54.557Z,29.20
2018-11-28T15:43:23.873Z,28.27
2018-11-28T15:45:53.265Z,26.43
2018-11-28T15:48:22.526Z,27.63
2018-11-28T15:50:51.899Z,23.47
2018-11-28T15:53:21.176Z,30.40
2018-11-28T15:55:50.869Z,27.97
2018-11-28T15:58:20.202Z,28.93
2018-11-28T16:00:49.727Z,24.43
2018-11-28T16:03:19.142Z,27.97
2018-11-28T16:05:48.381Z,26.00
2018-11-28T16:08:17.749Z,33.13
2018-11-28T16:10:47.085Z,23.47
2018-11-28T16:13:17.893Z,25.30
2018-11-28T16:15:49.735Z,29.57
2018-11-28T16:18:19.123Z,26.03
2018-11-28T16:20:48.409Z,23.20
2018-11-28T16:23:17.716Z,30.12
2018-11-28T16:25:47.188Z,21.40
2018-11-28T16:28:16.860Z,25.77
2018-11-28T16:30:46.267Z,26.40
2018-11-28T16:33:16.037Z,22.23
2018-11-28T16:35:45.348Z,25.17
2018-11-28T16:38:15.449Z,27.80
2018-11-28T16:40:44.963Z,21.43
2018-11-28T16:43:14.662Z,23.03
2018-11-28T16:45:43.990Z,23.63
2018-11-28T16:48:13.247Z,23.70
2018-11-28T16:50:42.530Z,24.80
2018-11-28T16:53:11.977Z,28.87
2018-11-28T16:55:41.209Z,26.40
2018-11-28T16:58:10.913Z,27.33
2018-11-28T17:00:43.141Z,25.83
2018-11-28T17:03:14.230Z,27.33
2018-11-28T17:05:44.068Z,25.57
2018-11-28T17:08:13.917Z,26.07
2018-11-28T17:10:43.353Z,21.07
2018-11-28T17:13:13.512Z,30.47
2018-11-28T17:15:44.876Z,24.50
2018-11-28T17:18:15.032Z,22.73
2018-11-28T17:20:44.260Z,27.13
2018-11-28T17:23:13.569Z,23.37
2018-11-28T17:25:43.111Z,24.30
2018-11-28T17:28:12.370Z,25.17
2018-11-28T17:30:41.715Z,23.03
2018-11-28T17:33:10.915Z,24.17
2018-11-28T17:35:41.269Z,32.28
2018-11-28T17:38:10.574Z,23.50
2018-11-28T17:40:39.840Z,27.10
2018-11-28T17:43:09.061Z,24.67
2018-11-28T17:45:38.334Z,25.10
2018-11-28T17:48:07.785Z,22.47
2018-11-28T17:50:37.170Z,31.53
2018-11-28T17:53:11.955Z,22.60
2018-11-28T17:55:47.578Z,26.63
2018-11-28T17:58:17.355Z,25.57
2018-11-28T18:00:46.804Z,24.93
2018-11-28T18:03:17.108Z,22.67
2018-11-28T18:05:47.152Z,25.27
2018-11-28T18:08:16.527Z,20.53
2018-11-28T18:10:45.893Z,23.57
2018-11-28T18:13:17.448Z,23.63
2018-11-28T18:15:48.991Z,24.10
2018-11-28T18:18:19.702Z,19.90
2018-11-28T18:20:50.290Z,25.83
2018-11-28T18:23:18.606Z,25.85
2018-11-28T18:25:48.266Z,26.23
2018-11-28T18:28:18.126Z,25.43
2018-11-28T18:30:47.402Z,27.13
2018-11-28T18:33:17.180Z,20.57
2018-11-28T18:35:46.421Z,25.00
2018-11-28T18:38:15.898Z,22.60
2018-11-28T18:40:45.197Z,22.33
2018-11-28T18:43:14.952Z,26.77
2018-11-28T18:45:46.285Z,22.40
2018-11-28T18:48:15.489Z,25.40
2018-11-28T18:50:44.743Z,26.62
2018-11-28T18:53:14.524Z,24.00
2018-11-28T18:55:43.812Z,25.17
2018-11-28T18:58:13.876Z,21.23
2018-11-28T19:00:44.248Z,26.47
2018-11-28T19:03:13.962Z,27.53
2018-11-28T19:05:43.257Z,22.30
2018-11-28T19:08:12.530Z,24.80
2018-11-28T19:10:41.832Z,23.17
2018-11-28T19:13:11.067Z,23.00
2018-11-28T19:15:40.381Z,36.50
2018-11-28T19:18:09.601Z,26.13
2018-11-28T19:20:39.022Z,24.60
2018-11-28T19:23:08.285Z,25.53
2018-11-28T19:25:37.514Z,35.93
2018-11-28T19:28:06.780Z,24.07
2018-11-28T19:30:38.167Z,23.97
2018-11-28T19:33:08.828Z,23.22
2018-11-28T19:35:38.366Z,21.00
2018-11-28T19:38:09.210Z,25.90
2018-11-28T19:40:46.722Z,24.47
2018-11-28T19:43:16.176Z,24.57
2018-11-28T19:45:45.408Z,27.32
2018-11-28T19:48:15.282Z,26.50
2018-11-28T19:50:45.550Z,21.33
2018-11-28T19:53:15.536Z,25.23
2018-11-28T19:55:44.890Z,24.00
2018-11-28T19:58:14.626Z,25.00
2018-11-28T20:00:45.127Z,24.93
2018-11-28T20:03:14.809Z,24.83
2018-11-28T20:05:44.203Z,25.00
2018-11-28T20:08:14.084Z,25.30
2018-11-28T20:10:43.357Z,27.07
2018-11-28T20:13:12.993Z,34.48
2018-11-28T20:15:45.333Z,25.60
2018-11-28T20:18:15.272Z,25.13
2018-11-28T20:20:44.587Z,28.40
2018-11-28T20:23:14.525Z,31.67
2018-11-28T20:25:43.949Z,28.93
2018-11-28T20:28:13.772Z,31.17
2018-11-28T20:30:45.042Z,26.90
2018-11-28T20:33:16.500Z,26.50
2018-11-28T20:35:47.021Z,27.70
2018-11-28T20:38:20.761Z,34.58
2018-11-28T20:40:50.434Z,32.20
2018-11-28T20:43:20.586Z,31.43
2018-11-28T20:45:49.808Z,28.55
2018-11-28T20:48:19.110Z,30.93
2018-11-28T20:50:48.614Z,30.23
2018-11-28T20:53:19.044Z,31.33
2018-11-28T20:55:48.342Z,30.17
2018-11-28T20:58:17.917Z,29.63
2018-11-28T21:00:47.695Z,27.30
2018-11-28T21:03:17.487Z,31.57
2018-11-28T21:05:46.854Z,29.90
2018-11-28T21:08:17.693Z,30.33
2018-11-28T21:10:47.003Z,28.13
2018-11-28T21:13:16.428Z,28.17
2018-11-28T21:15:46.278Z,31.10
2018-11-28T21:18:15.995Z,26.80
2018-11-28T21:20:46.103Z,30.40
2018-11-28T21:23:17.190Z,34.03
2018-11-28T21:25:46.703Z,34.30
2018-11-28T21:28:16.294Z,31.00
2018-11-28T21:30:45.613Z,28.90
2018-11-28T21:33:15.718Z,31.20
2018-11-28T21:35:49.409Z,29.03
2018-11-28T21:38:18.869Z,33.42
2018-11-28T21:40:52.291Z,32.03
2018-11-28T21:43:21.597Z,31.87
2018-11-28T21:45:50.983Z,29.97
2018-11-28T21:48:20.994Z,28.27
2018-11-28T21:50:50.270Z,30.97
2018-11-28T21:53:19.545Z,36.43
2018-11-28T21:55:48.827Z,30.00
2018-11-28T21:58:18.092Z,31.17
2018-11-28T22:00:47.392Z,30.10
2018-11-28T22:03:18.158Z,33.23
2018-11-28T22:05:48.889Z,30.67
2018-11-28T22:08:18.207Z,37.57
2018-11-28T22:10:49.163Z,33.48
2018-11-28T22:13:20.245Z,45.03
2018-11-28T22:15:49.613Z,32.50
2018-11-28T22:18:21.908Z,32.47
2018-11-28T22:20:51.184Z,30.37
2018-11-28T22:23:21.011Z,34.35
2018-11-28T22:25:50.297Z,38.50
2018-11-28T22:28:24.921Z,36.17
2018-11-28T22:30:54.130Z,38.13
2018-11-28T22:33:23.396Z,39.27
2018-11-28T22:35:52.655Z,38.53
2018-11-28T22:38:21.893Z,41.40
2018-11-28T22:40:51.107Z,33.30
2018-11-28T22:43:20.511Z,34.60
2018-11-28T22:45:49.747Z,33.73
2018-11-28T22:48:19.226Z,31.13
2018-11-28T22:50:48.494Z,35.83
2018-11-28T22:53:17.704Z,37.70
2018-11-28T22:55:46.955Z,39.70
2018-11-28T22:58:16.949Z,36.27
2018-11-28T23:00:51.365Z,38.27
2018-11-28T23:03:20.710Z,37.07
2018-11-28T23:05:51.018Z,40.00
2018-11-28T23:08:21.144Z,41.03
2018-11-28T23:10:51.415Z,43.57
2018-11-28T23:13:23.807Z,42.20
2018-11-28T23:15:53.107Z,44.40
2018-11-28T23:18:22.384Z,46.57
2018-11-28T23:20:51.660Z,40.63
2018-11-28T23:23:20.951Z,45.45
2018-11-28T23:25:50.250Z,46.20
2018-11-28T23:28:19.511Z,47.10
2018-11-28T23:30:48.739Z,44.50
2018-11-28T23:33:18.088Z,46.40
2018-11-28T23:35:47.641Z,40.93
2018-11-28T23:38:18.711Z,44.73
2018-11-28T23:40:48.085Z,43.95
2018-11-28T23:43:17.490Z,46.70
2018-11-28T23:45:46.854Z,43.77
2018-11-28T23:48:16.244Z,46.80
2018-11-28T23:50:45.463Z,47.77
2018-11-28T23:53:16.054Z,51.07
2018-11-28T23:55:45.313Z,54.30
2018-11-28T23:58:15.566Z,51.03
